< < Back
Terminal Aerodrome Forecast


Current Version              Previous Versions:   1  2  3  4  5  6  7  8  9  

Terminal Aerodrome Forecast

237
FTUS42 KILM 261700
TAFILM
TAF
KILM 261720Z 2618/2718 29012KT P6SM VCSH BKN016 BKN050
     FM270000 27005KT P6SM SCT050
      TEMPO 2710/2712 4SM BR
     FM271400 28011KT P6SM SCT080=



Latest METAR

737
SAUS70 KWBC 261700 RRD
MTRILM
METAR KILM 261653Z 34010G19KT 8SM -RA OVC012 09/08 A2981 RMK AO2 PK WND
33027/1620 SLP095 P0004 T00890078


USA.gov is the U.S. government's official web portal to all federal, state and local government web resources and services.